Terminal Aerodrome Forecast
Issued by NWS Charleston, WV

Current Version | Previous Version | Graphics & Text | Print | Product List | Glossary On
Versions: 1 2 3 4 5 6 7 8 9 10 11 12 13 14 15 16 17 18 19 20 21 22 23 24 25 26 27 28 29
000
FTUS41 KRLX 020814 AAA
TAFCRW
TAF AMD
KCRW 020814Z 0208/0306 00000KT 5SM BR BKN030
     FM021400 VRB04KT P6SM BKN035
     FM021700 22005KT 6SM BR VCTS BKN045CB
     FM022300 VRB04KT 6SM BR BKN035
     FM030300 00000KT 5SM BR OVC025=

USA.gov is the U.S. government's official web portal to all federal, state and local government web resources and services.